Time;durP1;ratioP1;P1;durP2;ratioP2;P2;SDS_P1;SDS_P2;PMS_P1;PMS_P2;Temp;Humidity;BMP_temperature;BMP_pressure;BME280_temperature;BME280_humidity;BME280_pressure;Samples;Min_cycle;Max_cycle;Signal;HPM_P1;HPM_P2
2022/08/11 04:05:57;;;;;;;4.90;4.13;;;15.50;98.20;;;;;;5015275;23;21019;-68
2022/08/11 04:08:51;;;;;;;4.00;3.70;;;15.50;98.10;;;;;;5013795;28;20451;-69
2022/08/11 04:11:33;;;;;;;4.20;3.80;;;15.40;98.70;;;;;;5009336;28;20451;-69
2022/08/11 04:17:41;;;;;;;4.03;3.83;;;15.30;99.10;;;;;;4975222;28;20469;-67
2022/08/11 04:20:43;;;;;;;4.17;3.77;;;15.30;99.30;;;;;;4978658;28;20457;-68
2022/08/11 04:23:08;;;;;;;4.67;4.27;;;15.30;99.70;;;;;;4993248;28;20919;-69
2022/08/11 04:25:43;;;;;;;4.90;4.60;;;15.30;99.60;;;;;;4993877;28;20468;-69
2022/08/11 04:28:35;;;;;;;3.93;3.63;;;15.40;99.70;;;;;;4993979;28;20183;-68
2022/08/11 04:31:34;;;;;;;5.03;4.53;;;15.50;99.30;;;;;;4993580;28;20414;-68
2022/08/11 04:34:18;;;;;;;4.93;4.63;;;15.50;99.60;;;;;;4992316;28;20447;-69
2022/08/11 04:37:35;;;;;;;5.30;4.80;;;15.40;99.70;;;;;;4993515;28;20429;-69
2022/08/11 04:40:19;;;;;;;5.90;5.20;;;15.50;99.90;;;;;;4977756;28;20428;-68
2022/08/11 04:43:21;;;;;;;5.53;5.13;;;15.70;99.90;;;;;;4993407;28;20402;-69
2022/08/11 04:46:12;;;;;;;4.83;4.47;;;15.90;99.00;;;;;;4993756;28;20402;-69
2022/08/11 05:07:33;;;;;;;4.77;4.37;;;17.70;94.40;;;;;;4997184;28;20538;-69
2022/08/11 05:10:11;;;;;;;5.07;4.67;;;18.20;93.00;;;;;;4997073;28;20464;-69
2022/08/11 05:12:55;;;;;;;6.13;5.40;;;18.50;91.60;;;;;;4997063;28;20401;-69
2022/08/11 05:35:48;;;;;;;4.37;3.97;;;18.50;90.60;;;;;;4996733;28;20407;-68
2022/08/11 05:58:03;;;;;;;4.90;4.50;;;19.20;87.30;;;;;;4995251;28;20541;-67
2022/08/11 06:00:30;;;;;;;5.47;4.87;;;19.40;86.90;;;;;;4996116;28;20453;-68
2022/08/11 06:02:59;;;;;;;4.57;4.10;;;19.60;85.70;;;;;;4995008;28;20424;-68
2022/08/11 06:05:33;;;;;;;4.00;3.70;;;19.80;84.90;;;;;;4995840;28;20521;-67
2022/08/11 06:07:59;;;;;;;4.80;4.40;;;19.90;83.50;;;;;;4994859;28;20424;-68
2022/08/11 06:10:37;;;;;;;3.30;3.10;;;20.00;82.90;;;;;;4996042;28;20458;-69
2022/08/11 06:13:06;;;;;;;4.93;4.53;;;20.10;81.90;;;;;;4995044;28;20425;-69
2022/08/11 06:15:33;;;;;;;3.80;3.50;;;20.20;81.50;;;;;;4995689;28;20978;-68
2022/08/11 06:18:01;;;;;;;4.97;4.20;;;20.30;80.70;;;;;;4995883;28;20407;-68
2022/08/11 06:20:35;;;;;;;3.90;3.60;;;20.40;80.20;;;;;;4978669;28;20418;-68
2022/08/11 06:23:06;;;;;;;3.60;3.30;;;20.40;80.20;;;;;;4975716;28;20423;-67
2022/08/11 06:25:34;;;;;;;3.27;3.07;;;20.40;80.00;;;;;;4988401;28;20470;-68
2022/08/11 06:28:05;;;;;;;4.10;3.80;;;20.30;79.90;;;;;;4995443;28;20418;-69
2022/08/11 06:30:41;;;;;;;4.50;4.10;;;20.30;79.70;;;;;;4989450;28;20463;-68
2022/08/11 06:33:10;;;;;;;3.07;2.87;;;20.40;79.70;;;;;;4979398;28;20436;-68
2022/08/11 06:35:48;;;;;;;3.97;3.67;;;20.60;80.00;;;;;;4987157;28;20423;-67
2022/08/11 06:38:51;;;;;;;3.80;3.60;;;20.60;79.00;;;;;;4974446;28;20396;-68
2022/08/11 06:41:34;;;;;;;3.60;3.40;;;20.80;79.60;;;;;;4953045;28;20510;-69
2022/08/11 06:44:12;;;;;;;4.03;3.73;;;21.00;79.00;;;;;;4975460;28;20570;-70
2022/08/11 06:46:45;;;;;;;4.63;4.27;;;21.20;78.30;;;;;;4975807;28;20408;-69
2022/08/11 06:52:05;;;;;;;3.63;3.27;;;21.40;77.70;;;;;;4975994;28;20454;-69
2022/08/11 06:54:40;;;;;;;4.43;4.13;;;21.50;77.50;;;;;;4975195;28;20427;-69
2022/08/11 07:02:44;;;;;;;4.03;3.70;;;21.90;75.70;;;;;;4975063;28;20419;-70
2022/08/11 07:05:15;;;;;;;3.30;3.10;;;22.10;74.90;;;;;;4988583;28;20508;-70
2022/08/11 07:16:51;;;;;;;3.47;3.27;;;22.30;73.40;;;;;;4994869;28;20407;-70
2022/08/11 07:30:39;;;;;;;3.60;3.30;;;22.80;72.60;;;;;;4975096;28;20802;-69
2022/08/11 07:33:06;;;;;;;3.50;3.30;;;23.00;71.90;;;;;;4980442;28;20723;-69
2022/08/11 07:35:57;;;;;;;3.47;3.17;;;23.20;71.40;;;;;;4994394;28;20394;-69
2022/08/11 07:38:43;;;;;;;6.33;3.63;;;23.30;70.70;;;;;;4993912;28;20441;-70
2022/08/11 07:41:13;;;;;;;3.97;3.67;;;23.50;70.80;;;;;;4994587;28;20391;-69
2022/08/11 07:43:41;;;;;;;3.30;3.10;;;23.90;70.00;;;;;;4993889;28;20421;-70
2022/08/11 07:54:25;;;;;;;3.40;3.20;;;27.60;59.30;;;;;;4993452;28;20423;-70
2022/08/11 07:56:51;;;;;;;3.20;3.00;;;28.50;57.90;;;;;;4994126;28;20374;-70
2022/08/11 08:18:37;;;;;;;3.23;3.03;;;33.30;48.60;;;;;;4993411;28;20414;-67
2022/08/11 08:21:11;;;;;;;3.80;3.50;;;33.80;47.50;;;;;;4988268;28;20888;-65
2022/08/11 08:23:38;;;;;;;3.83;3.63;;;34.30;46.70;;;;;;4992616;28;20431;-70
2022/08/11 08:26:57;;;;;;;3.00;2.90;;;34.60;46.00;;;;;;4994548;28;20464;-68
2022/08/11 08:30:46;;;;;;;3.53;3.33;;;35.00;44.70;;;;;;4995931;28;20458;-68
2022/08/11 08:31:44;;;;;;;4.73;3.77;;;35.10;44.20;;;;;;4996267;28;20541;-66
2022/08/11 08:34:11;;;;;;;3.30;3.10;;;35.30;43.70;;;;;;4995345;28;20748;-66
2022/08/11 08:36:41;;;;;;;5.03;3.60;;;35.70;43.70;;;;;;4995753;28;20401;-65
2022/08/11 08:39:07;;;;;;;3.57;3.37;;;36.10;42.70;;;;;;4995869;28;20438;-71
2022/08/11 08:41:35;;;;;;;3.33;3.13;;;36.10;42.30;;;;;;4996445;28;20399;-68
2022/08/11 08:44:09;;;;;;;4.50;3.13;;;36.00;42.10;;;;;;4995885;28;20264;-65
2022/08/11 08:46:44;;;;;;;3.33;3.10;;;35.70;42.30;;;;;;4996355;28;20830;-68
2022/08/11 08:49:15;;;;;;;2.70;2.60;;;35.40;42.50;;;;;;4995859;28;20453;-67
2022/08/11 08:51:42;;;;;;;3.27;3.07;;;35.30;42.40;;;;;;4994232;28;20944;-67
2022/08/11 08:54:16;;;;;;;3.10;2.90;;;35.30;42.10;;;;;;4995638;28;20484;-69
2022/08/11 08:56:43;;;;;;;3.03;2.83;;;35.50;41.40;;;;;;4994778;28;20896;-68
2022/08/11 08:59:12;;;;;;;2.97;2.80;;;35.60;41.00;;;;;;4996158;28;20402;-67
2022/08/11 09:01:48;;;;;;;3.10;2.90;;;35.50;41.60;;;;;;4996442;28;20417;-69
2022/08/11 09:04:15;;;;;;;2.60;2.50;;;35.60;41.40;;;;;;4958385;28;1077389;-69
2022/08/11 09:06:44;;;;;;;2.90;2.70;;;35.60;41.30;;;;;;4996986;28;20411;-65
2022/08/11 09:09:11;;;;;;;3.20;3.00;;;35.60;41.10;;;;;;4996946;28;20446;-69
2022/08/11 09:11:52;;;;;;;2.83;2.63;;;35.50;40.90;;;;;;4996953;28;20512;-68
2022/08/11 09:17:18;;;;;;;3.00;2.80;;;35.30;41.20;;;;;;4997457;28;20904;-69
2022/08/11 09:19:46;;;;;;;2.90;2.70;;;35.30;40.80;;;;;;4995958;28;20881;-68
2022/08/11 09:27:47;;;;;;;2.33;2.23;;;35.10;40.10;;;;;;4977729;28;20457;-68
2022/08/11 09:30:13;;;;;;;2.50;2.30;;;35.10;40.50;;;;;;4977424;28;20802;-68
2022/08/11 09:32:40;;;;;;;2.87;2.60;;;34.90;40.20;;;;;;4977074;28;20746;-69
2022/08/11 09:35:08;;;;;;;2.83;2.63;;;34.80;40.30;;;;;;4977385;28;20279;-67
2022/08/11 09:40:29;;;;;;;2.53;2.40;;;34.40;40.30;;;;;;4981754;28;20438;-67
2022/08/11 09:45:50;;;;;;;2.40;2.30;;;34.10;40.50;;;;;;4996942;28;20494;-67
2022/08/11 09:48:17;;;;;;;3.00;2.70;;;34.20;41.10;;;;;;4996539;28;20389;-70
2022/08/11 09:50:47;;;;;;;2.97;2.77;;;34.40;40.60;;;;;;4996510;28;20411;-67
2022/08/11 09:53:15;;;;;;;2.50;2.40;;;34.60;39.70;;;;;;4994717;28;20498;-67
2022/08/11 09:55:42;;;;;;;2.70;2.20;;;34.20;39.80;;;;;;4996044;28;20752;-69
2022/08/11 09:58:15;;;;;;;3.10;2.90;;;34.20;40.10;;;;;;4996391;28;20498;-68
2022/08/11 10:00:42;;;;;;;2.40;2.30;;;34.40;39.70;;;;;;4996349;28;20490;-70
2022/08/11 10:03:27;;;;;;;2.60;2.50;;;34.70;40.00;;;;;;4994303;28;20792;-69
2022/08/11 10:08:46;;;;;;;2.70;2.50;;;34.50;40.40;;;;;;4996081;28;20497;-67
2022/08/11 10:11:17;;;;;;;2.90;2.70;;;34.50;39.60;;;;;;4976589;28;20764;-67
2022/08/11 10:16:33;;;;;;;2.30;2.20;;;35.40;38.70;;;;;;4976654;28;20429;-68
2022/08/11 10:19:01;;;;;;;3.33;3.00;;;35.40;38.00;;;;;;4976247;28;20382;-68
2022/08/11 10:21:30;;;;;;;2.20;2.10;;;35.40;38.10;;;;;;4976316;28;20443;-67
2022/08/11 10:26:57;;;;;;;2.50;2.40;;;35.10;38.70;;;;;;4996037;28;20976;-66
2022/08/11 10:35:11;;;;;;;2.73;2.63;;;34.40;38.60;;;;;;4995916;28;20437;-70
2022/08/11 10:37:37;;;;;;;2.97;2.40;;;34.50;38.30;;;;;;4995622;28;20412;-69
2022/08/11 10:40:07;;;;;;;3.07;2.80;;;34.70;39.10;;;;;;4994804;28;20489;-67
2022/08/11 10:48:05;;;;;;;2.53;2.43;;;34.90;39.20;;;;;;4995386;28;20512;-69
2022/08/11 10:58:48;;;;;;;2.10;2.00;;;34.30;38.80;;;;;;4995151;28;20878;-68
2022/08/11 11:01:15;;;;;;;2.80;2.60;;;34.20;38.70;;;;;;4995080;28;20404;-67
2022/08/11 11:03:41;;;;;;;2.37;2.27;;;34.30;39.20;;;;;;4994362;28;20924;-67
2022/08/11 11:06:34;;;;;;;2.80;2.60;;;34.20;39.10;;;;;;4995305;28;20572;-70
2022/08/11 11:09:21;;;;;;;2.67;2.57;;;34.10;38.90;;;;;;4994761;28;20432;-68
2022/08/11 11:20:41;;;;;;;2.10;2.00;;;32.90;39.30;;;;;;4994781;28;20377;-67
2022/08/11 11:23:25;;;;;;;3.00;2.80;;;32.10;40.20;;;;;;4994633;28;20465;-67
2022/08/11 11:26:18;;;;;;;2.70;2.60;;;31.40;40.70;;;;;;4994486;28;20824;-66
2022/08/11 11:28:57;;;;;;;2.60;2.43;;;30.80;41.00;;;;;;4994443;28;20454;-69
2022/08/11 11:31:31;;;;;;;2.40;2.30;;;30.30;41.70;;;;;;4994973;28;20416;-67
2022/08/11 11:34:10;;;;;;;2.87;2.47;;;29.90;42.20;;;;;;4992923;28;20431;-69
2022/08/11 11:36:44;;;;;;;2.03;1.90;;;29.60;42.90;;;;;;4994376;28;20382;-66
2022/08/11 11:39:10;;;;;;;2.00;1.90;;;29.50;42.50;;;;;;4994229;28;20797;-69
2022/08/11 11:41:36;;;;;;;2.20;2.10;;;29.40;42.60;;;;;;4994471;28;20446;-67
2022/08/11 11:44:03;;;;;;;2.23;2.13;;;29.30;42.80;;;;;;4992690;28;20523;-66
2022/08/11 11:46:30;;;;;;;2.70;2.50;;;29.20;43.60;;;;;;4994334;28;20189;-67
2022/08/11 11:48:57;;;;;;;2.47;2.37;;;29.00;43.10;;;;;;4994338;28;20572;-68
2022/08/11 11:51:24;;;;;;;2.10;2.00;;;28.90;42.70;;;;;;4994424;28;20401;-68
2022/08/11 11:53:50;;;;;;;3.67;2.33;;;28.80;42.90;;;;;;4993447;28;20457;-67
2022/08/11 11:56:17;;;;;;;2.40;2.23;;;28.90;43.20;;;;;;4994225;28;20754;-70
2022/08/11 12:01:29;;;;;;;2.53;2.13;;;28.80;43.20;;;;;;4993693;28;20410;-68
2022/08/11 12:03:55;;;;;;;2.57;2.47;;;28.80;43.60;;;;;;4993887;28;20962;-67
2022/08/11 12:06:24;;;;;;;2.60;2.37;;;28.80;43.00;;;;;;4993941;28;20934;-68
2022/08/11 12:08:52;;;;;;;2.23;2.13;;;28.80;42.30;;;;;;4993688;28;20513;-67
2022/08/11 12:14:07;;;;;;;2.40;2.30;;;28.70;43.20;;;;;;4994042;28;20438;-69
2022/08/11 12:16:35;;;;;;;3.03;2.00;;;28.70;42.80;;;;;;4994167;28;20414;-67
2022/08/11 12:19:06;;;;;;;4.30;2.13;;;28.80;43.00;;;;;;4994226;28;20415;-66
2022/08/11 12:21:34;;;;;;;2.90;2.20;;;28.70;42.80;;;;;;4994116;28;20398;-67
2022/08/11 12:29:31;;;;;;;2.73;2.53;;;28.70;42.50;;;;;;4993835;28;20994;-68
2022/08/11 12:31:59;;;;;;;2.10;2.00;;;28.60;42.30;;;;;;4994225;28;20376;-68
2022/08/11 12:34:27;;;;;;;1.80;1.70;;;28.70;42.60;;;;;;4993395;28;20394;-66
2022/08/11 12:36:58;;;;;;;2.00;1.90;;;28.70;42.60;;;;;;4993670;28;20417;-68
2022/08/11 12:53:24;;;;;;;2.40;2.30;;;29.10;42.40;;;;;;4993333;28;20452;-69
2022/08/11 12:58:41;;;;;;;2.20;2.10;;;29.20;41.20;;;;;;4993725;28;20374;-70
2022/08/11 13:06:38;;;;;;;1.83;1.73;;;28.80;40.80;;;;;;4993103;28;20410;-69
2022/08/11 13:09:05;;;;;;;3.40;2.00;;;28.70;41.30;;;;;;4992764;28;20978;-67
2022/08/11 13:14:17;;;;;;;2.33;2.13;;;28.70;42.20;;;;;;4997009;28;20934;-65
2022/08/11 13:19:29;;;;;;;1.70;1.60;;;28.90;41.30;;;;;;4996971;28;20406;-68
2022/08/11 13:21:56;;;;;;;2.57;2.37;;;28.80;41.80;;;;;;4997397;28;20794;-68
2022/08/11 13:24:22;;;;;;;2.30;2.20;;;28.90;41.20;;;;;;4996354;28;20856;-68
2022/08/11 13:26:49;;;;;;;1.80;1.70;;;28.90;41.00;;;;;;4996976;28;20420;-66
2022/08/11 13:29:24;;;;;;;2.20;2.10;;;28.80;40.20;;;;;;4996719;28;20816;-68
2022/08/11 13:31:52;;;;;;;2.20;1.90;;;28.90;40.60;;;;;;4996947;28;20433;-67
2022/08/11 13:34:20;;;;;;;1.90;1.80;;;28.90;41.00;;;;;;4996230;28;20432;-69
2022/08/11 13:36:51;;;;;;;2.00;1.90;;;29.00;41.10;;;;;;4996565;28;20417;-68
2022/08/11 13:39:18;;;;;;;2.07;1.97;;;29.00;41.20;;;;;;4996717;28;20512;-67
2022/08/11 13:41:46;;;;;;;2.23;2.13;;;28.90;41.40;;;;;;4996691;28;20441;-66
2022/08/11 13:44:13;;;;;;;2.23;2.03;;;28.90;41.00;;;;;;4996185;28;20406;-68
2022/08/11 13:46:40;;;;;;;2.00;1.90;;;28.90;40.80;;;;;;4995348;28;20911;-68
2022/08/11 13:49:07;;;;;;;2.10;2.00;;;28.90;41.20;;;;;;4995588;28;20545;-68
2022/08/11 13:51:36;;;;;;;2.50;2.33;;;29.00;41.50;;;;;;4996068;28;20489;-66
2022/08/11 13:54:17;;;;;;;2.10;2.00;;;29.10;41.20;;;;;;4994606;28;20435;-66
2022/08/11 13:56:46;;;;;;;1.60;1.57;;;29.10;41.10;;;;;;4996376;28;20387;-69
2022/08/11 13:59:13;;;;;;;2.80;2.00;;;29.10;41.30;;;;;;4996271;28;20404;-70
2022/08/11 14:01:46;;;;;;;3.93;1.80;;;29.20;40.60;;;;;;4996057;28;20502;-68
2022/08/11 14:04:16;;;;;;;2.00;1.90;;;29.10;40.60;;;;;;4994417;28;20416;-68
2022/08/11 14:06:50;;;;;;;2.50;2.33;;;29.10;40.70;;;;;;4995917;28;20504;-68
2022/08/11 14:09:28;;;;;;;2.47;2.37;;;29.00;40.70;;;;;;4996013;28;20450;-68
2022/08/11 14:14:50;;;;;;;2.17;2.07;;;29.10;40.30;;;;;;4996370;28;20438;-66
2022/08/11 14:17:19;;;;;;;2.50;2.33;;;29.10;40.50;;;;;;4995925;28;20405;-69
2022/08/11 14:19:48;;;;;;;2.10;1.70;;;29.20;40.90;;;;;;4995771;28;20413;-69
2022/08/11 14:22:14;;;;;;;2.00;1.90;;;29.30;40.70;;;;;;4994919;28;20436;-69
2022/08/11 14:24:48;;;;;;;2.00;1.90;;;29.30;39.90;;;;;;4994689;28;20551;-70
2022/08/11 14:27:15;;;;;;;4.53;2.40;;;29.30;39.90;;;;;;4995767;28;20383;-69
2022/08/11 14:29:42;;;;;;;1.67;1.57;;;29.30;40.00;;;;;;4995608;28;20817;-66
2022/08/11 14:32:10;;;;;;;2.40;2.20;;;29.30;39.40;;;;;;4995757;28;20452;-69
2022/08/11 14:34:40;;;;;;;2.00;1.90;;;29.20;39.40;;;;;;4995269;28;20469;-67
2022/08/11 14:37:10;;;;;;;2.93;1.67;;;29.20;40.30;;;;;;4995286;28;20504;-67
2022/08/11 14:39:59;;;;;;;2.07;1.97;;;29.20;40.50;;;;;;4995470;28;20438;-69
2022/08/11 14:48:03;;;;;;;1.90;1.80;;;29.40;39.80;;;;;;4995638;28;20410;-68
2022/08/11 14:50:30;;;;;;;2.10;2.00;;;29.30;39.80;;;;;;4994876;28;20777;-68
2022/08/11 14:53:09;;;;;;;2.00;1.90;;;29.20;40.00;;;;;;4994873;28;20383;-68
2022/08/11 14:58:24;;;;;;;2.53;2.27;;;29.20;40.60;;;;;;4995182;28;20412;-67
2022/08/11 15:00:55;;;;;;;1.80;1.70;;;29.20;40.20;;;;;;4994911;28;21058;-69
2022/08/11 15:03:23;;;;;;;2.10;1.90;;;29.30;40.00;;;;;;4994598;28;20443;-68
2022/08/11 15:05:55;;;;;;;2.10;2.00;;;29.30;40.00;;;;;;4994508;28;20438;-66
2022/08/11 15:08:53;;;;;;;2.27;2.07;;;29.30;39.50;;;;;;4994802;28;20381;-67
2022/08/11 15:13:59;;;;;;;2.00;1.90;;;29.20;39.20;;;;;;4993586;28;20417;-67
2022/08/11 15:19:12;;;;;;;2.20;2.10;;;29.00;40.20;;;;;;4994964;28;20514;-71
2022/08/11 15:24:23;;;;;;;1.80;1.70;;;29.10;39.60;;;;;;4994233;28;20431;-74
2022/08/11 15:37:57;;;;;;;2.37;1.90;;;29.10;40.90;;;;;;4994894;28;20452;-64
2022/08/11 15:46:32;;;;;;;1.93;1.83;;;29.20;40.60;;;;;;4994222;28;20922;-69
2022/08/11 15:49:12;;;;;;;2.13;2.03;;;29.20;41.00;;;;;;4993517;28;21060;-69
2022/08/11 15:52:08;;;;;;;1.77;1.67;;;29.10;40.60;;;;;;4974678;28;20443;-69
2022/08/11 15:54:40;;;;;;;2.03;1.93;;;29.10;40.60;;;;;;4966520;28;20472;-69
2022/08/11 15:57:07;;;;;;;5.97;2.27;;;29.10;40.30;;;;;;4974437;28;20491;-70
2022/08/11 16:05:12;;;;;;;1.80;1.70;;;29.00;41.20;;;;;;4985742;28;20991;-73
2022/08/11 16:07:39;;;;;;;2.33;2.13;;;29.10;40.80;;;;;;4993661;28;20515;-70
2022/08/11 16:10:07;;;;;;;2.40;2.30;;;29.00;41.20;;;;;;4993993;28;20929;-69
2022/08/11 16:18:39;;;;;;;2.20;2.10;;;28.90;40.80;;;;;;4974521;28;20413;-69
2022/08/11 16:21:11;;;;;;;2.30;2.10;;;28.80;40.40;;;;;;4974522;28;20368;-68
2022/08/11 16:23:41;;;;;;;2.93;2.30;;;28.80;40.80;;;;;;4974056;28;20905;-69
2022/08/11 16:26:08;;;;;;;1.80;1.70;;;28.80;40.50;;;;;;4974292;28;20432;-69
2022/08/11 16:28:35;;;;;;;2.30;2.20;;;28.80;40.60;;;;;;4974388;28;20436;-67
2022/08/11 16:31:01;;;;;;;2.20;2.00;;;28.70;40.80;;;;;;4980534;28;20482;-68
2022/08/11 16:33:29;;;;;;;2.00;1.90;;;28.70;40.80;;;;;;4993216;28;20788;-73
2022/08/11 16:38:40;;;;;;;2.10;2.00;;;28.70;41.00;;;;;;4994023;28;20402;-73
2022/08/11 16:41:12;;;;;;;2.00;1.90;;;28.60;40.80;;;;;;4992106;28;20485;-66
2022/08/11 16:49:20;;;;;;;2.10;2.00;;;28.50;41.30;;;;;;4997697;28;20569;-65
2022/08/11 16:51:46;;;;;;;1.87;1.77;;;28.50;41.20;;;;;;4996219;28;20740;-63
2022/08/11 16:54:12;;;;;;;2.20;2.00;;;28.50;41.70;;;;;;4996312;28;20445;-64
2022/08/11 16:56:44;;;;;;;1.93;1.80;;;28.40;41.40;;;;;;4997477;28;20419;-66
2022/08/11 16:59:21;;;;;;;2.27;2.17;;;28.40;41.70;;;;;;4997507;28;20430;-62
2022/08/11 17:01:58;;;;;;;2.50;2.30;;;28.40;41.50;;;;;;4997212;28;20415;-69
2022/08/11 17:13:08;;;;;;;1.90;1.80;;;28.30;41.80;;;;;;4996743;28;20428;-62
2022/08/11 17:18:39;;;;;;;2.20;2.00;;;28.20;41.90;;;;;;4997219;28;20393;-68
2022/08/11 17:21:28;;;;;;;2.53;1.87;;;28.20;41.80;;;;;;4995174;28;20418;-68
2022/08/11 17:23:59;;;;;;;2.20;2.10;;;28.20;41.70;;;;;;4996680;28;20423;-67
2022/08/11 17:29:23;;;;;;;2.20;2.00;;;28.10;41.80;;;;;;4996847;28;20448;-69
2022/08/11 17:37:21;;;;;;;1.70;1.60;;;27.90;42.20;;;;;;4977236;28;20430;-66
2022/08/11 17:39:48;;;;;;;2.10;2.00;;;27.90;42.30;;;;;;4977138;28;20408;-64
2022/08/11 17:50:32;;;;;;;1.80;1.70;;;27.70;42.20;;;;;;4985432;28;20538;-70
2022/08/11 18:01:15;;;;;;;1.87;1.77;;;27.50;42.60;;;;;;4996174;28;20915;-70
2022/08/11 18:03:43;;;;;;;2.17;2.07;;;27.40;42.70;;;;;;4995632;28;20435;-70
2022/08/11 18:06:11;;;;;;;2.03;1.87;;;27.40;42.90;;;;;;4995383;28;20820;-70
